Time;durP1;ratioP1;P1;durP2;ratioP2;P2;SDS_P1;SDS_P2;PMS_P1;PMS_P2;Temp;Humidity;BMP_temperature;BMP_pressure;BME280_temperature;BME280_humidity;BME280_pressure;Samples;Min_cycle;Max_cycle;Signal;HPM_P1;HPM_P2
2022/12/29 17:01:52;;;;;;;1.70;1.50;;;;;;;13.19;72.00;99657.13;5048124;28;20715;-72
2022/12/29 17:04:21;;;;;;;2.20;1.73;;;;;;;12.88;74.01;99707.72;5022291;28;20041;-71
2022/12/29 17:06:49;;;;;;;2.08;1.23;;;;;;;12.78;75.17;99727.81;5040918;28;20037;-71
2022/12/29 17:09:31;;;;;;;1.90;1.60;;;;;;;12.75;75.39;99720.19;5041509;28;20041;-71
2022/12/29 17:12:00;;;;;;;3.15;1.75;;;;;;;12.72;75.61;99710.81;5043790;28;20025;-71
2022/12/29 17:14:51;;;;;;;1.52;1.25;;;;;;;12.72;75.75;99718.66;5038966;28;20028;-71
2022/12/29 17:17:22;;;;;;;1.65;1.55;;;;;;;12.72;75.95;99723.91;5043268;28;20045;-71
2022/12/29 17:19:52;;;;;;;2.55;1.83;;;;;;;12.72;75.85;99721.28;5039400;28;20025;-71
2022/12/29 17:22:24;;;;;;;2.22;1.55;;;;;;;12.60;76.44;99717.03;5038718;28;20381;-71
2022/12/29 17:24:54;;;;;;;1.63;1.30;;;;;;;12.66;77.10;99742.75;5045156;28;20487;-70
2022/12/29 17:27:33;;;;;;;2.85;1.88;;;;;;;12.70;77.04;99738.09;5036253;28;20041;-71
2022/12/29 17:30:11;;;;;;;1.95;1.73;;;;;;;12.72;76.97;99736.16;5044785;28;20029;-70
2022/12/29 17:32:43;;;;;;;2.17;1.92;;;;;;;12.73;76.92;99730.78;5033101;28;20037;-70
2022/12/29 17:35:16;;;;;;;1.83;1.20;;;;;;;12.73;76.84;99741.28;5020976;28;20037;-70
2022/12/29 17:37:42;;;;;;;13.55;1.80;;;;;;;12.73;76.68;99741.28;5005837;28;20048;-70
2022/12/29 17:40:23;;;;;;;2.35;1.85;;;;;;;12.73;76.98;99733.41;5021591;28;20033;-70
2022/12/29 17:42:54;;;;;;;2.88;1.70;;;;;;;12.74;76.78;99723.75;5038370;28;20041;-70
2022/12/29 17:45:27;;;;;;;2.35;1.58;;;;;;;12.74;76.77;99723.75;5046006;28;20391;-70
2022/12/29 17:47:54;;;;;;;3.22;2.67;;;;;;;12.73;76.71;99722.94;5041564;28;20487;-71
2022/12/29 17:50:26;;;;;;;2.45;1.58;;;;;;;12.74;76.97;99723.75;5043581;28;20041;-71
2022/12/29 17:52:56;;;;;;;1.75;1.48;;;;;;;12.73;76.67;99725.56;5041520;28;20052;-70
2022/12/29 17:55:24;;;;;;;4.47;2.05;;;;;;;12.75;76.44;99722.81;5025874;28;20037;-70
2022/12/29 17:57:51;;;;;;;1.45;1.35;;;;;;;12.75;76.66;99730.66;5023448;28;20365;-71
2022/12/29 18:00:23;;;;;;;2.78;2.58;;;;;;;12.74;76.63;99729.00;5025115;28;20495;-71
2022/12/29 18:02:49;;;;;;;2.55;1.45;;;;;;;12.75;76.65;99725.44;5024980;28;21510;-71
2022/12/29 18:05:29;;;;;;;2.30;1.60;;;;;;;12.75;76.66;99741.16;5017846;22;20057;-68
2022/12/29 18:07:57;;;;;;;3.15;1.48;;;;;;;12.76;76.76;99739.34;5009320;28;20032;-67
2022/12/29 18:10:29;;;;;;;2.85;2.60;;;;;;;12.76;76.66;99739.34;5010810;28;20037;-68
2022/12/29 18:12:59;;;;;;;2.47;1.48;;;;;;;12.76;76.63;99747.22;5000553;28;20025;-68
2022/12/29 18:15:30;;;;;;;2.22;2.03;;;;;;;12.76;76.58;99757.69;5011213;28;20495;-67
2022/12/29 18:18:15;;;;;;;2.22;1.77;;;;;;;12.76;76.66;99753.31;4994507;28;20049;-68
2022/12/29 18:20:42;;;;;;;2.65;2.10;;;;;;;12.75;76.98;99751.63;4970350;28;20053;-68
2022/12/29 18:23:33;;;;;;;1.73;1.63;;;;;;;12.75;76.33;99725.44;5005661;28;20042;-67
2022/12/29 18:26:06;;;;;;;2.47;1.70;;;;;;;12.76;76.65;99692.19;5010639;28;20046;-67
2022/12/29 18:28:35;;;;;;;4.05;2.38;;;;;;;12.75;76.82;99683.50;4993789;28;20044;-68
2022/12/29 18:31:01;;;;;;;4.03;2.70;;;;;;;12.75;76.67;99688.75;5010679;28;20041;-68
2022/12/29 18:33:31;;;;;;;2.50;2.33;;;;;;;12.76;76.58;99686.94;5010714;28;20041;-67
2022/12/29 18:36:06;;;;;;;3.30;2.13;;;;;;;12.76;76.63;99687.81;5009654;28;20029;-68
2022/12/29 18:38:32;;;;;;;2.53;2.25;;;;;;;12.76;76.90;99693.03;4999563;28;20121;-67
2022/12/29 18:41:03;;;;;;;2.00;1.30;;;;;;;12.76;76.52;99711.38;4994141;28;20042;-67
2022/12/29 18:43:29;;;;;;;1.70;1.20;;;;;;;12.76;76.88;99714.00;4993745;28;20038;-67
2022/12/29 18:45:58;;;;;;;2.72;1.95;;;;;;;12.77;76.60;99722.69;4992432;28;20376;-67
2022/12/29 18:48:24;;;;;;;1.85;1.75;;;;;;;12.78;76.53;99719.13;4997229;28;20037;-67
2022/12/29 18:50:52;;;;;;;5.07;2.85;;;;;;;12.77;76.67;99718.28;5005572;28;20045;-67
2022/12/29 18:53:23;;;;;;;2.63;2.05;;;;;;;12.77;76.49;99722.69;4995935;28;20037;-67
2022/12/29 18:55:53;;;;;;;3.13;1.70;;;;;;;12.77;76.51;99720.06;4994091;28;20057;-67
2022/12/29 18:58:26;;;;;;;1.80;1.37;;;;;;;12.78;76.62;99711.25;4995841;28;20045;-67
2022/12/29 19:00:55;;;;;;;1.58;1.45;;;;;;;12.76;76.71;99707.91;5012996;28;20659;-67
2022/12/29 19:03:23;;;;;;;2.05;1.77;;;;;;;12.77;76.51;99706.97;5011041;28;20041;-67
2022/12/29 19:05:52;;;;;;;2.25;1.88;;;;;;;12.77;76.67;99704.34;4995384;28;20499;-68
2022/12/29 19:08:18;;;;;;;4.22;2.17;;;;;;;12.77;76.66;99693.84;4996170;28;20495;-67
2022/12/29 19:10:44;;;;;;;2.28;1.38;;;;;;;12.76;76.60;99700.91;5008565;28;20049;-67
2022/12/29 19:13:22;;;;;;;2.88;2.38;;;;;;;12.77;76.89;99706.97;4998213;28;20563;-68
2022/12/29 19:15:54;;;;;;;2.85;1.80;;;;;;;12.77;76.51;99715.66;4992237;28;20053;-68
2022/12/29 19:18:25;;;;;;;2.22;1.52;;;;;;;12.77;76.57;99709.59;4994414;28;20033;-68
2022/12/29 19:20:53;;;;;;;2.25;1.70;;;;;;;12.78;76.60;99719.13;4993734;28;20037;-67
2022/12/29 19:23:24;;;;;;;2.47;1.60;;;;;;;12.77;76.54;99710.41;4995534;28;20034;-67
2022/12/29 19:25:52;;;;;;;3.40;3.10;;;;;;;12.77;76.52;99706.97;4995998;28;20065;-68
2022/12/29 19:28:25;;;;;;;3.65;1.63;;;;;;;12.77;76.66;99717.44;5010999;28;20050;-67
2022/12/29 19:30:55;;;;;;;1.90;1.67;;;;;;;12.77;76.56;99706.97;4991675;28;20033;-67
2022/12/29 19:33:24;;;;;;;2.10;1.55;;;;;;;12.76;76.68;99708.75;4979008;28;20260;-67
2022/12/29 19:35:58;;;;;;;5.93;1.67;;;;;;;12.77;76.49;99707.78;5010597;28;20037;-67
2022/12/29 19:38:24;;;;;;;2.40;1.45;;;;;;;12.76;76.71;99706.16;4992317;28;20408;-67
2022/12/29 19:40:50;;;;;;;1.60;1.42;;;;;;;12.77;76.54;99717.44;4976579;28;21801;-67
2022/12/29 19:43:19;;;;;;;2.10;1.90;;;;;;;12.77;76.49;99709.59;4999222;28;20672;-67
2022/12/29 19:45:45;;;;;;;1.77;1.45;;;;;;;12.76;76.46;99698.28;4994557;28;20044;-67
2022/12/29 19:48:14;;;;;;;1.73;1.35;;;;;;;12.76;76.79;99698.28;4994739;28;20045;-67
2022/12/29 19:50:43;;;;;;;2.78;1.58;;;;;;;12.77;76.55;99706.97;4993098;28;20044;-67
2022/12/29 19:53:10;;;;;;;2.67;1.65;;;;;;;12.77;76.29;99722.69;5011854;28;20052;-68
2022/12/29 19:55:48;;;;;;;4.50;2.67;;;;;;;12.77;76.63;99709.59;4992165;28;20045;-67
2022/12/29 19:58:16;;;;;;;1.63;1.50;;;;;;;12.78;76.63;99711.25;4998507;28;20053;-67
2022/12/29 20:00:45;;;;;;;2.88;1.98;;;;;;;12.76;76.71;99706.16;5008515;28;20045;-68
2022/12/29 20:03:13;;;;;;;2.53;1.60;;;;;;;12.77;76.60;99701.72;4996443;28;20042;-67
2022/12/29 20:05:47;;;;;;;3.28;1.85;;;;;;;12.78;76.62;99703.41;4995881;28;20676;-68
2022/12/29 20:08:13;;;;;;;2.47;1.90;;;;;;;12.77;76.58;99707.78;4996140;28;20042;-68
2022/12/29 20:10:42;;;;;;;2.40;1.65;;;;;;;12.78;76.26;99706.03;4994847;28;20045;-67
2022/12/29 20:13:08;;;;;;;1.90;1.52;;;;;;;12.77;76.49;99710.41;4994387;28;20471;-68
2022/12/29 20:15:41;;;;;;;3.33;1.45;;;;;;;12.78;76.74;99713.88;4992853;28;20048;-67
2022/12/29 20:18:07;;;;;;;1.95;1.75;;;;;;;12.78;76.51;99714.69;4991795;28;20045;-68
2022/12/29 20:20:33;;;;;;;2.90;1.70;;;;;;;12.78;76.60;99726.97;4990369;28;20041;-67
2022/12/29 20:23:04;;;;;;;2.33;1.70;;;;;;;12.78;76.65;99733.03;4990454;28;20038;-67
2022/12/29 20:25:31;;;;;;;2.58;1.33;;;;;;;12.78;76.73;99734.84;4992608;28;20041;-67
2022/12/29 20:27:59;;;;;;;2.13;1.63;;;;;;;12.78;76.57;99740.91;4992771;28;20037;-67
2022/12/29 20:30:27;;;;;;;1.77;1.23;;;;;;;12.78;76.82;99745.31;4994158;28;20052;-67
2022/12/29 20:32:56;;;;;;;2.13;1.40;;;;;;;12.78;76.46;99735.66;4992327;28;20033;-67
2022/12/29 20:35:24;;;;;;;2.47;1.95;;;;;;;12.78;76.65;99747.94;4991865;28;20048;-67
2022/12/29 20:37:53;;;;;;;1.70;1.40;;;;;;;12.77;76.61;99744.47;5003369;28;20038;-67
2022/12/29 20:40:19;;;;;;;2.25;1.30;;;;;;;12.77;76.56;99754.97;4991751;28;20399;-67
2022/12/29 20:42:50;;;;;;;2.10;1.55;;;;;;;12.79;76.80;99765.31;5007030;28;20042;-68
2022/12/29 20:45:18;;;;;;;1.55;1.45;;;;;;;12.79;76.52;99757.47;4986634;28;20065;-67
2022/12/29 20:47:47;;;;;;;2.00;1.67;;;;;;;12.77;76.75;99762.81;4995492;28;20063;-67
2022/12/29 20:50:15;;;;;;;2.03;1.83;;;;;;;12.77;76.46;99760.19;4990576;28;20042;-67
2022/12/29 20:52:41;;;;;;;1.45;1.33;;;;;;;12.78;76.71;99750.56;4987933;28;20053;-67
2022/12/29 20:55:15;;;;;;;2.75;1.67;;;;;;;12.77;76.62;99749.72;4992163;28;20061;-67
2022/12/29 20:57:43;;;;;;;3.35;2.63;;;;;;;12.77;76.58;99754.97;5013186;28;20045;-67
2022/12/29 21:00:10;;;;;;;2.25;2.00;;;;;;;12.78;76.53;99750.56;4994355;28;20045;-67
2022/12/29 21:02:37;;;;;;;2.85;1.73;;;;;;;12.78;76.60;99750.56;4995738;28;20419;-67
2022/12/29 21:05:03;;;;;;;2.10;1.45;;;;;;;12.78;76.61;99750.56;4990093;28;20052;-67
2022/12/29 21:07:30;;;;;;;1.75;1.48;;;;;;;12.78;76.52;99745.31;4994058;28;20475;-67
2022/12/29 21:09:58;;;;;;;2.47;1.75;;;;;;;12.77;76.56;99735.78;4993419;28;20473;-67
2022/12/29 21:12:29;;;;;;;2.88;2.22;;;;;;;12.78;76.60;99734.84;4997214;28;20030;-67
2022/12/29 21:15:00;;;;;;;2.75;1.60;;;;;;;12.78;76.40;99742.72;4992431;28;20049;-67
2022/12/29 21:17:29;;;;;;;2.70;1.67;;;;;;;12.78;76.51;99769.75;5010916;28;20412;-67
2022/12/29 21:20:00;;;;;;;2.28;1.88;;;;;;;12.79;76.69;99767.94;5006386;28;20514;-67
2022/12/29 21:22:28;;;;;;;3.47;2.22;;;;;;;12.78;76.50;99761.06;4993669;28;20046;-67
2022/12/29 21:24:57;;;;;;;2.20;1.83;;;;;;;12.78;76.61;99774.16;4990551;28;20060;-66
2022/12/29 21:27:24;;;;;;;2.08;1.75;;;;;;;12.78;76.56;99785.47;4993817;28;20415;-67
2022/12/29 21:29:52;;;;;;;3.38;3.05;;;;;;;12.78;76.55;99764.50;4975775;28;20034;-67
2022/12/29 21:32:21;;;;;;;3.42;1.38;;;;;;;12.77;76.48;99759.38;4994615;28;20034;-67
2022/12/29 21:34:47;;;;;;;2.60;1.20;;;;;;;12.78;76.52;99774.16;5009305;28;20037;-67
2022/12/29 21:37:15;;;;;;;1.60;1.40;;;;;;;12.78;76.57;99771.53;4992934;28;20040;-67
2022/12/29 21:39:42;;;;;;;2.80;2.40;;;;;;;12.78;76.55;99763.66;5005097;28;20050;-67
2022/12/29 21:42:08;;;;;;;1.52;1.42;;;;;;;12.78;76.49;99772.34;5005527;28;20098;-66
2022/12/29 21:47:19;;;;;;;2.20;1.45;;;;;;;12.78;76.65;99776.78;5021824;28;20050;-67
2022/12/29 21:49:45;;;;;;;1.90;1.70;;;;;;;12.77;76.62;99770.69;5023910;28;20034;-67
2022/12/29 21:52:13;;;;;;;1.80;1.63;;;;;;;12.78;76.56;99772.34;5007863;28;20076;-67
2022/12/29 22:14:05;;;;;;;2.30;1.25;;;;;;;12.78;76.63;99802.97;5007096;28;20481;-66
2022/12/29 22:16:33;;;;;;;1.75;1.50;;;;;;;12.78;76.73;99805.59;5028412;28;20034;-67
2022/12/29 22:19:01;;;;;;;4.25;2.40;;;;;;;12.78;76.88;99800.38;5004758;28;20042;-67
2022/12/29 22:21:29;;;;;;;2.65;2.05;;;;;;;12.77;76.51;99806.56;5009797;28;20403;-67
2022/12/29 22:23:57;;;;;;;2.70;1.88;;;;;;;12.78;76.79;99816.91;5006716;28;20487;-67
2022/12/29 22:26:23;;;;;;;1.98;1.77;;;;;;;12.78;76.89;99821.31;5012208;28;20686;-67
2022/12/29 22:28:51;;;;;;;3.78;1.98;;;;;;;12.78;76.69;99834.44;5009942;28;20054;-67
2022/12/29 22:31:27;;;;;;;2.15;1.50;;;;;;;12.79;76.56;99836.06;5008399;28;20029;-67
2022/12/29 22:34:02;;;;;;;3.35;2.63;;;;;;;12.78;76.64;99834.44;5008608;28;20034;-67
2022/12/29 22:36:29;;;;;;;2.13;1.70;;;;;;;12.78;76.69;99830.00;5007595;28;20030;-67
2022/12/29 22:38:55;;;;;;;1.83;1.50;;;;;;;12.77;76.63;99838.81;4978792;28;20399;-67
2022/12/29 22:41:22;;;;;;;2.00;1.80;;;;;;;12.78;76.70;99847.53;4993511;28;20045;-67
2022/12/29 22:43:51;;;;;;;1.88;1.67;;;;;;;12.78;76.70;99852.78;5006845;28;20034;-67
2022/12/29 22:46:19;;;;;;;2.50;2.05;;;;;;;12.78;76.60;99865.88;5006405;28;20064;-67
2022/12/29 22:48:45;;;;;;;2.67;1.73;;;;;;;12.77;76.56;99865.03;4974350;28;20504;-67
2022/12/29 22:51:16;;;;;;;1.63;1.52;;;;;;;12.78;76.73;99868.50;5007010;28;20037;-67
2022/12/29 22:53:46;;;;;;;2.83;1.58;;;;;;;12.77;76.63;99872.88;4993895;28;20039;-66
2022/12/29 22:56:15;;;;;;;2.05;1.95;;;;;;;12.78;76.60;99873.75;5008960;28;20432;-67
2022/12/29 22:58:43;;;;;;;1.83;1.05;;;;;;;12.78;76.63;99876.38;5006271;28;20408;-67
2022/12/29 23:01:12;;;;;;;2.60;1.30;;;;;;;12.78;76.66;99878.97;4992375;28;20060;-67
2022/12/29 23:03:41;;;;;;;1.98;1.55;;;;;;;12.77;76.73;99886.00;5006234;28;20049;-67
2022/12/29 23:06:10;;;;;;;2.33;1.33;;;;;;;12.78;76.66;99892.09;5007583;28;20038;-67
2022/12/29 23:08:39;;;;;;;2.35;1.80;;;;;;;12.78;76.65;99903.41;5008214;28;20044;-66
2022/12/29 23:11:08;;;;;;;2.70;1.63;;;;;;;12.78;76.71;99899.94;5025408;28;20048;-67
2022/12/29 23:13:37;;;;;;;2.22;2.03;;;;;;;12.78;76.62;99907.81;5004327;28;20037;-67
2022/12/29 23:16:07;;;;;;;1.50;1.10;;;;;;;12.77;76.50;99901.72;5010957;28;20484;-67
2022/12/29 23:18:34;;;;;;;2.60;1.40;;;;;;;12.77;76.48;99899.09;5003382;28;20499;-67
2022/12/29 23:21:00;;;;;;;2.85;2.63;;;;;;;12.78;76.46;99899.94;5008321;28;20049;-67
2022/12/29 23:26:12;;;;;;;1.55;1.45;;;;;;;12.78;77.03;99899.94;5010520;28;20030;-67
2022/12/29 23:28:39;;;;;;;3.03;2.13;;;;;;;12.78;76.62;99902.56;5008683;28;20037;-67
2022/12/29 23:31:05;;;;;;;1.45;1.13;;;;;;;12.77;76.65;99901.72;4994584;28;20659;-67
2022/12/29 23:33:33;;;;;;;2.05;1.45;;;;;;;12.78;76.49;99899.94;5009346;28;20033;-67
2022/12/29 23:36:04;;;;;;;;;;;;;;;12.77;76.69;99893.84;5007701;28;20041;-67
2022/12/29 23:38:33;;;;;;;5.03;2.33;;;;;;;12.78;76.57;99897.34;5007596;28;20402;-67
2022/12/29 23:40:59;;;;;;;2.00;1.20;;;;;;;12.77;76.72;99893.84;5006749;28;20395;-67
2022/12/29 23:43:25;;;;;;;2.50;1.50;;;;;;;12.78;76.49;99892.09;5008614;28;20397;-67
2022/12/29 23:45:51;;;;;;;4.05;2.33;;;;;;;12.78;76.64;99903.41;4993215;28;20034;-67
2022/12/29 23:48:18;;;;;;;2.05;1.30;;;;;;;12.77;76.59;99908.75;5008168;28;20033;-67
2022/12/29 23:50:45;;;;;;;2.30;1.67;;;;;;;12.79;76.64;99912.09;5005571;28;20041;-67
2022/12/29 23:53:16;;;;;;;1.33;1.15;;;;;;;12.77;76.54;99903.50;5008594;28;20400;-67
2022/12/29 23:55:43;;;;;;;2.30;1.60;;;;;;;12.77;76.51;99909.56;5023476;28;20543;-67
2022/12/29 23:58:10;;;;;;;2.53;2.10;;;;;;;12.77;76.51;99906.13;5020680;28;20034;-67
